createdAt,value
2023-03-10T00:04:10.015Z,17.7
2023-03-10T00:09:48.889Z,17.7
2023-03-10T00:15:41.634Z,17.7
2023-03-10T00:21:34.988Z,17.7
2023-03-10T00:27:12.013Z,17.7
2023-03-10T00:33:06.244Z,17.7
2023-03-10T00:38:44.424Z,17.7
2023-03-10T00:44:37.986Z,17.7
2023-03-10T00:50:00.116Z,17.7
2023-03-10T00:55:52.470Z,17.7
2023-03-10T01:01:44.967Z,17.7
2023-03-10T01:07:38.699Z,17.7
2023-03-10T01:13:31.810Z,17.7
2023-03-10T01:19:25.132Z,17.7
2023-03-10T01:25:02.035Z,17.7
2023-03-10T01:30:39.445Z,17.7
2023-03-10T01:36:02.385Z,17.7
2023-03-10T01:41:41.321Z,17.7
2023-03-10T01:47:34.412Z,17.7
2023-03-10T01:53:27.346Z,17.7
2023-03-10T01:59:20.341Z,17.7
2023-03-10T02:05:13.558Z,17.7
2023-03-10T02:10:08.803Z,17.7
2023-03-10T02:16:01.863Z,17.7
2023-03-10T02:21:39.795Z,17.7
2023-03-10T02:27:41.455Z,17.7
2023-03-10T02:33:45.771Z,17.7
2023-03-10T02:39:23.187Z,17.7
2023-03-10T02:45:00.190Z,17.7
2023-03-10T02:50:23.151Z,17.9
2023-03-10T02:56:00.532Z,18.5
2023-03-10T03:01:53.387Z,19.8
2023-03-10T03:07:30.185Z,21.4
2023-03-10T03:12:51.695Z,23.2
2023-03-10T03:18:31.969Z,25.1
2023-03-10T03:24:24.834Z,27.1
2023-03-10T03:29:45.976Z,28.8
2023-03-10T03:35:42.919Z,30.1
2023-03-10T03:41:21.062Z,30.6
2023-03-10T03:47:13.352Z,31
2023-03-10T03:53:09.986Z,31.3
2023-03-10T03:59:02.255Z,31.4
2023-03-10T04:04:39.998Z,31.6
2023-03-10T04:10:17.056Z,31.7
2023-03-10T04:16:10.149Z,31.7
2023-03-10T04:22:18.646Z,31.7
2023-03-10T04:27:41.485Z,31.7
2023-03-10T04:33:28.312Z,31.6
2023-03-10T04:39:20.934Z,31.6
2023-03-10T04:45:09.855Z,31.6
2023-03-10T04:50:46.541Z,31.6
2023-03-10T04:56:22.903Z,31.6
2023-03-10T05:02:09.430Z,31.6
2023-03-10T05:08:04.688Z,31.5
2023-03-10T05:13:56.556Z,31.5
2023-03-10T05:19:49.105Z,31.4
2023-03-10T05:25:26.944Z,31.4
2023-03-10T05:30:50.278Z,31.3
2023-03-10T05:36:27.342Z,31.3
2023-03-10T05:42:04.586Z,31.2
2023-03-10T05:47:57.453Z,31.1
2023-03-10T05:53:37.753Z,31.1
2023-03-10T05:59:30.113Z,30.9
2023-03-10T06:05:10.891Z,30.8
2023-03-10T06:11:04.822Z,30.8
2023-03-10T06:16:58.022Z,30.8
2023-03-10T06:22:51.812Z,30.7
2023-03-10T06:28:44.062Z,30.6
2023-03-10T06:34:37.568Z,30.6
2023-03-10T06:40:00.974Z,30.6
2023-03-10T06:45:39.689Z,30.5
2023-03-10T06:51:32.411Z,30.4
2023-03-10T06:57:10.164Z,30.4
2023-03-10T07:02:32.017Z,30.3
2023-03-10T07:08:10.346Z,30.3
2023-03-10T07:13:49.318Z,30.3
2023-03-10T07:19:43.203Z,30.2
2023-03-10T07:25:21.318Z,30.1
2023-03-10T07:31:14.652Z,30.1
2023-03-10T07:37:07.657Z,30.1
2023-03-10T07:43:01.518Z,30
2023-03-10T07:48:54.362Z,29.9
2023-03-10T07:54:32.285Z,29.9
2023-03-10T08:00:09.822Z,29.9
2023-03-10T08:06:04.021Z,35.3
2023-03-10T08:11:56.784Z,35.5
2023-03-10T08:17:35.581Z,33.9
2023-03-10T08:23:13.401Z,31.8
2023-03-10T08:28:51.689Z,30.6
2023-03-10T08:35:04.180Z,29.7
2023-03-10T08:40:47.442Z,28.9
2023-03-10T08:46:48.004Z,31.8
2023-03-10T08:52:26.214Z,34.9
2023-03-10T08:58:07.018Z,35.8
2023-03-10T09:04:04.681Z,36.4
2023-03-10T09:09:56.555Z,37.3
2023-03-10T09:16:03.761Z,36.8
2023-03-10T09:22:00.186Z,36.5
2023-03-10T09:27:53.608Z,36.2
2023-03-10T09:33:45.542Z,36.1
2023-03-10T09:39:51.337Z,35.9
2023-03-10T09:46:00.339Z,35.6
2023-03-10T09:51:51.427Z,35.4
2023-03-10T09:57:54.921Z,35.3
2023-03-10T10:03:53.221Z,34.9
2023-03-10T10:10:00.648Z,34.6
2023-03-10T10:16:41.243Z,34.4
2023-03-10T10:22:58.992Z,34.3
2023-03-10T10:28:53.113Z,34
2023-03-10T10:34:51.952Z,33.7
2023-03-10T10:40:50.431Z,33.4
2023-03-10T10:46:29.002Z,33.1
2023-03-10T10:52:07.268Z,32.8
2023-03-10T10:58:01.401Z,32.6
2023-03-10T11:03:53.968Z,32.3
2023-03-10T11:09:47.229Z,32
2023-03-10T11:15:24.790Z,31.8
2023-03-10T11:21:04.253Z,31.4
2023-03-10T11:26:56.769Z,31.1
2023-03-10T11:32:50.648Z,30.8
2023-03-10T11:38:51.243Z,30.4
2023-03-10T11:44:29.294Z,30.1
2023-03-10T11:50:21.282Z,29.8
2023-03-10T11:56:13.371Z,29.5
2023-03-10T12:02:07.246Z,29.2
2023-03-10T12:08:01.271Z,28.9
2023-03-10T12:13:38.973Z,28.7
2023-03-10T12:19:33.135Z,28.5
2023-03-10T12:25:25.078Z,28.4
2023-03-10T12:31:16.751Z,28.3
2023-03-10T12:37:11.286Z,28.1
2023-03-10T12:42:49.134Z,27.9
2023-03-10T12:48:42.764Z,27.7
2023-03-10T12:54:36.930Z,27.6
2023-03-10T13:00:30.753Z,27.4
2023-03-10T13:06:14.891Z,27.3
2023-03-10T13:11:52.634Z,27.2
2023-03-10T13:17:31.177Z,27
2023-03-10T13:23:23.928Z,26.8
2023-03-10T13:28:47.442Z,26.6
2023-03-10T13:34:41.418Z,26.4
2023-03-10T13:40:16.997Z,26.4
2023-03-10T13:46:07.597Z,26.4
2023-03-10T13:51:59.367Z,26.4
2023-03-10T13:57:51.261Z,26.8
2023-03-10T14:03:47.027Z,26.7
2023-03-10T14:09:41.092Z,26.6
2023-03-10T14:15:34.320Z,26.9
2023-03-10T14:20:56.325Z,28.2
2023-03-10T14:31:41.719Z,27.5
2023-03-10T14:37:23.318Z,27.1
2023-03-10T14:43:16.432Z,26.8
2023-03-10T14:49:11.816Z,26.4
2023-03-10T14:55:15.581Z,26
2023-03-10T15:01:08.767Z,25.6
2023-03-10T15:07:10.885Z,25.2
2023-03-10T15:13:15.185Z,24.9
2023-03-10T15:19:09.029Z,24.7
2023-03-10T15:24:45.633Z,24.5
2023-03-10T15:30:37.957Z,24.4
2023-03-10T15:36:33.531Z,24.3
2023-03-10T15:42:38.996Z,24.1
2023-03-10T15:48:33.215Z,24.1
2023-03-10T15:54:26.151Z,24
2023-03-10T16:00:18.342Z,23.9
2023-03-10T16:06:11.091Z,23.8
2023-03-10T16:12:04.345Z,23.8
2023-03-10T16:17:57.748Z,23.8
2023-03-10T16:23:34.939Z,23.7
2023-03-10T16:29:13.781Z,23.6
2023-03-10T16:35:05.854Z,23.6
2023-03-10T16:40:59.508Z,23.5
2023-03-10T16:46:52.777Z,23.2
2023-03-10T16:51:42.716Z,22.7
2023-03-10T16:56:48.825Z,22.4
2023-03-10T17:02:27.277Z,22.2
2023-03-10T17:08:12.690Z,22.1
2023-03-10T17:14:08.836Z,21.9
2023-03-10T17:20:03.394Z,21.8
2023-03-10T17:25:39.897Z,21.1
2023-03-10T17:31:35.368Z,20.6
2023-03-10T17:37:28.683Z,20.3
2023-03-10T17:43:34.709Z,20.1
2023-03-10T17:49:27.607Z,20
2023-03-10T17:55:05.821Z,19.9
2023-03-10T18:00:58.337Z,19.8
2023-03-10T18:06:54.218Z,19.8
2023-03-10T18:12:46.937Z,19.6
2023-03-10T18:18:38.686Z,19.6
2023-03-10T18:24:15.789Z,19.5
2023-03-10T18:30:08.574Z,19.5
2023-03-10T18:36:01.813Z,19.4
2023-03-10T18:41:55.636Z,19.4
2023-03-10T18:47:48.017Z,19.4
2023-03-10T18:53:24.610Z,19.4
2023-03-10T18:59:17.247Z,19.3
2023-03-10T19:04:55.166Z,19.1
2023-03-10T19:10:48.863Z,18.9
2023-03-10T19:16:42.236Z,18.8
2023-03-10T19:22:35.752Z,18.8
2023-03-10T19:28:29.209Z,18.8
2023-03-10T19:45:21.581Z,18.6
2023-03-10T19:51:15.012Z,18.6
2023-03-10T19:56:52.731Z,18.6
2023-03-10T20:02:30.937Z,18.6
2023-03-10T20:08:09.525Z,18.6
2023-03-10T20:14:01.752Z,18.6
2023-03-10T20:19:54.015Z,19.4
2023-03-10T20:31:08.914Z,22.4
2023-03-10T20:36:45.442Z,23.5
2023-03-10T20:42:39.372Z,24.7
2023-03-10T20:48:17.579Z,25.8
2023-03-10T20:54:10.415Z,26.8
2023-03-10T21:00:03.264Z,27.8
2023-03-10T21:05:41.781Z,28.8
2023-03-10T21:11:33.988Z,29.7
2023-03-10T21:17:11.854Z,30.2
2023-03-10T21:22:51.162Z,30.5
2023-03-10T21:27:57.847Z,30.7
2023-03-10T21:33:50.449Z,30.8
2023-03-10T21:39:43.586Z,30.9
2023-03-10T21:45:35.825Z,30.9
2023-03-10T21:51:28.964Z,30.9
2023-03-10T21:57:22.540Z,31
2023-03-10T22:02:58.862Z,30.9
2023-03-10T22:08:36.306Z,30.9
2023-03-10T22:14:28.693Z,30.9
2023-03-10T22:20:05.300Z,30.9
2023-03-10T22:25:57.733Z,30.9
2023-03-10T22:31:50.896Z,30.9
2023-03-10T22:37:43.029Z,30.9
2023-03-10T22:43:04.987Z,30.9
2023-03-10T22:48:27.100Z,30.9
2023-03-10T22:54:20.053Z,30.9
2023-03-10T23:00:13.002Z,30.8
2023-03-10T23:05:19.920Z,30.8
2023-03-10T23:10:56.481Z,30.8
2023-03-10T23:17:02.503Z,30.8
2023-03-10T23:22:40.277Z,30.8
2023-03-10T23:28:33.343Z,30.7
2023-03-10T23:34:26.333Z,30.7
2023-03-10T23:39:48.097Z,30.7
2023-03-10T23:45:09.956Z,30.7
2023-03-10T23:50:48.367Z,30.6
2023-03-10T23:56:25.774Z,30.6
